createdAt,value
2022-10-06T00:00:06.682Z,97.86
2022-10-06T00:01:06.406Z,97.86
2022-10-06T00:02:06.340Z,98.07
2022-10-06T00:03:06.321Z,98.07
2022-10-06T00:04:06.368Z,98.16
2022-10-06T00:05:06.300Z,98.27
2022-10-06T00:06:06.397Z,98.37
2022-10-06T00:07:06.412Z,98.47
2022-10-06T00:08:09.965Z,98.41
2022-10-06T00:09:06.242Z,98.52
2022-10-06T00:10:06.272Z,98.82
2022-10-06T00:11:06.228Z,99.02
2022-10-06T00:12:06.234Z,99.13
2022-10-06T00:13:06.192Z,99.33
2022-10-06T00:14:06.212Z,99.22
2022-10-06T00:15:06.206Z,99.22
2022-10-06T00:16:06.319Z,99.33
2022-10-06T00:17:06.155Z,99.33
2022-10-06T00:18:06.240Z,99.43
2022-10-06T00:19:06.238Z,99.53
2022-10-06T00:20:06.116Z,99.63
2022-10-06T00:21:06.107Z,99.74
2022-10-06T00:22:06.109Z,99.74
2022-10-06T00:23:06.094Z,99.84
2022-10-06T00:24:06.142Z,99.94
2022-10-06T00:25:06.103Z,99.94
2022-10-06T00:26:06.083Z,99.99
2022-10-06T00:27:06.066Z,99.99
2022-10-06T00:28:06.059Z,99.99
2022-10-06T00:29:06.111Z,99.99
2022-10-06T00:30:06.008Z,99.99
2022-10-06T00:31:06.029Z,99.99
2022-10-06T00:32:05.998Z,99.99
2022-10-06T00:33:06.039Z,99.99
2022-10-06T00:34:05.968Z,99.99
2022-10-06T00:35:06.010Z,99.99
2022-10-06T00:36:06.068Z,99.99
2022-10-06T00:37:05.937Z,99.99
2022-10-06T00:38:05.981Z,99.99
2022-10-06T00:39:05.953Z,99.99
2022-10-06T00:40:05.926Z,99.99
2022-10-06T00:41:05.889Z,99.99
2022-10-06T00:42:05.929Z,99.99
2022-10-06T00:43:05.858Z,99.99
2022-10-06T00:44:05.853Z,99.99
2022-10-06T00:45:05.850Z,99.99
2022-10-06T00:46:06.674Z,99.99
2022-10-06T00:47:05.836Z,99.99
2022-10-06T00:48:05.851Z,99.99
2022-10-06T00:49:05.823Z,99.99
2022-10-06T00:50:05.846Z,99.99
2022-10-06T00:51:05.786Z,99.99
2022-10-06T00:52:05.834Z,99.99
2022-10-06T00:53:05.790Z,99.99
2022-10-06T00:54:05.782Z,99.99
2022-10-06T00:55:05.771Z,99.99
2022-10-06T00:56:05.807Z,99.99
2022-10-06T00:57:05.701Z,99.99
2022-10-06T00:58:05.773Z,99.99
2022-10-06T00:59:05.685Z,99.99
2022-10-06T01:00:05.682Z,99.99
2022-10-06T01:01:05.710Z,99.99
2022-10-06T01:02:05.663Z,99.99
2022-10-06T01:03:05.731Z,99.99
2022-10-06T01:04:05.735Z,99.99
2022-10-06T01:05:05.652Z,99.99
2022-10-06T01:06:05.971Z,99.99
2022-10-06T01:07:05.636Z,99.99
2022-10-06T01:08:05.607Z,99.99
2022-10-06T01:09:05.593Z,99.99
2022-10-06T01:10:05.645Z,99.99
2022-10-06T01:11:05.565Z,99.99
2022-10-06T01:12:05.546Z,99.95
2022-10-06T01:13:05.554Z,99.85
2022-10-06T01:14:05.514Z,99.74
2022-10-06T01:15:05.742Z,99.64
2022-10-06T01:16:05.606Z,99.64
2022-10-06T01:17:05.498Z,99.54
2022-10-06T01:18:05.496Z,99.44
2022-10-06T01:19:05.471Z,99.44
2022-10-06T01:20:05.466Z,99.44
2022-10-06T01:21:05.465Z,99.44
2022-10-06T01:22:05.466Z,99.44
2022-10-06T01:23:05.416Z,99.44
2022-10-06T01:24:05.449Z,99.44
2022-10-06T01:25:05.431Z,99.44
2022-10-06T01:26:05.391Z,99.33
2022-10-06T01:27:05.368Z,99.29
2022-10-06T01:28:05.442Z,99.29
2022-10-06T01:29:05.380Z,99.33
2022-10-06T01:30:05.354Z,99.29
2022-10-06T01:31:05.369Z,99.19
2022-10-06T01:32:05.338Z,99.08
2022-10-06T01:33:05.758Z,98.84
2022-10-06T01:34:05.627Z,98.23
2022-10-06T01:35:05.279Z,97.83
2022-10-06T01:36:05.439Z,97.47
2022-10-06T01:37:05.274Z,96.87
2022-10-06T01:38:05.248Z,95.61
2022-10-06T01:39:05.253Z,93.68
2022-10-06T01:40:05.420Z,88.39
2022-10-06T01:41:05.348Z,86.73
2022-10-06T01:42:05.222Z,85.42
2022-10-06T01:43:05.171Z,84.37
2022-10-06T01:44:05.188Z,84.47
2022-10-06T01:45:05.172Z,84.06
2022-10-06T01:46:05.227Z,84.27
2022-10-06T01:47:05.146Z,84.27
2022-10-06T01:48:05.141Z,84.51
2022-10-06T01:49:05.128Z,84.81
2022-10-06T01:50:05.104Z,84.91
2022-10-06T01:51:05.137Z,84.51
2022-10-06T01:52:05.119Z,84.51
2022-10-06T01:53:05.052Z,84.31
2022-10-06T01:54:05.063Z,84.51
2022-10-06T01:55:05.034Z,84.00
2022-10-06T01:56:05.025Z,84.00
2022-10-06T01:57:05.070Z,84.45
2022-10-06T01:58:05.019Z,84.04
2022-10-06T01:59:05.052Z,84.25
2022-10-06T02:00:04.987Z,84.34
2022-10-06T02:01:05.022Z,84.65
2022-10-06T02:02:05.060Z,84.75
2022-10-06T02:03:04.948Z,84.85
2022-10-06T02:04:04.956Z,84.99
2022-10-06T02:05:04.930Z,84.99
2022-10-06T02:06:04.976Z,84.89
2022-10-06T02:07:04.925Z,84.79
2022-10-06T02:08:04.938Z,84.69
2022-10-06T02:09:04.895Z,84.79
2022-10-06T02:10:04.887Z,84.89
2022-10-06T02:11:04.856Z,85.03
2022-10-06T02:12:04.839Z,85.13
2022-10-06T02:13:04.851Z,85.33
2022-10-06T02:14:04.846Z,85.33
2022-10-06T02:15:04.856Z,85.44
2022-10-06T02:16:04.836Z,85.64
2022-10-06T02:17:04.786Z,85.84
2022-10-06T02:18:04.790Z,86.05
2022-10-06T02:19:04.773Z,86.29
2022-10-06T02:20:04.822Z,86.39
2022-10-06T02:21:04.746Z,86.39
2022-10-06T02:22:04.741Z,86.39
2022-10-06T02:23:04.730Z,86.49
2022-10-06T02:24:04.699Z,86.59
2022-10-06T02:25:04.693Z,86.79
2022-10-06T02:26:04.702Z,87.00
2022-10-06T02:27:04.669Z,87.10
2022-10-06T02:28:04.719Z,87.20
2022-10-06T02:29:04.648Z,87.30
2022-10-06T02:30:04.631Z,87.30
2022-10-06T02:31:04.698Z,87.40
2022-10-06T02:32:04.629Z,87.54
2022-10-06T02:33:04.630Z,87.54
2022-10-06T02:34:04.582Z,87.65
2022-10-06T02:35:04.581Z,87.85
2022-10-06T02:36:04.602Z,87.95
2022-10-06T02:37:04.605Z,88.05
2022-10-06T02:38:04.561Z,88.25
2022-10-06T02:39:04.537Z,88.35
2022-10-06T02:40:04.514Z,88.35
2022-10-06T02:41:04.541Z,88.35
2022-10-06T02:42:04.498Z,88.46
2022-10-06T02:43:04.486Z,88.46
2022-10-06T02:44:04.563Z,88.25
2022-10-06T02:45:04.464Z,88.15
2022-10-06T02:46:04.490Z,88.15
2022-10-06T02:47:04.435Z,88.15
2022-10-06T02:48:04.421Z,88.25
2022-10-06T02:49:04.417Z,88.25
2022-10-06T02:50:04.434Z,88.46
2022-10-06T02:51:04.389Z,88.46
2022-10-06T02:52:04.414Z,88.56
2022-10-06T02:53:04.355Z,88.66
2022-10-06T02:54:04.352Z,88.86
2022-10-06T02:55:04.355Z,88.86
2022-10-06T02:56:04.357Z,88.86
2022-10-06T02:57:04.313Z,88.96
2022-10-06T02:58:04.361Z,89.17
2022-10-06T02:59:04.354Z,89.37
2022-10-06T03:00:04.288Z,89.72
2022-10-06T03:01:04.277Z,90.02
2022-10-06T03:02:04.348Z,90.42
2022-10-06T03:03:04.257Z,90.73
2022-10-06T03:04:04.234Z,91.13
2022-10-06T03:05:04.218Z,91.38
2022-10-06T03:06:04.213Z,91.58
2022-10-06T03:07:04.207Z,91.68
2022-10-06T03:08:04.318Z,91.89
2022-10-06T03:09:04.209Z,91.99
2022-10-06T03:10:04.159Z,92.09
2022-10-06T03:11:04.139Z,92.19
2022-10-06T03:12:04.137Z,92.29
2022-10-06T03:13:04.133Z,92.40
2022-10-06T03:14:04.140Z,92.49
2022-10-06T03:15:04.092Z,92.54
2022-10-06T03:16:04.178Z,92.64
2022-10-06T03:17:04.076Z,92.64
2022-10-06T03:18:04.112Z,92.44
2022-10-06T03:19:04.091Z,92.44
2022-10-06T03:20:04.082Z,92.33
2022-10-06T03:21:04.020Z,92.33
2022-10-06T03:22:04.062Z,92.44
2022-10-06T03:23:04.003Z,92.44
2022-10-06T03:24:04.011Z,92.44
2022-10-06T03:25:03.980Z,92.33
2022-10-06T03:26:03.971Z,92.13
2022-10-06T03:27:04.053Z,92.13
2022-10-06T03:28:04.062Z,92.24
2022-10-06T03:29:07.918Z,92.13
2022-10-06T03:30:04.987Z,91.93
2022-10-06T03:31:03.999Z,91.83
2022-10-06T03:32:03.893Z,91.73
2022-10-06T03:33:03.893Z,91.63
2022-10-06T03:34:03.892Z,91.42
2022-10-06T03:35:03.994Z,91.32
2022-10-06T03:36:03.852Z,91.32
2022-10-06T03:37:03.836Z,91.32
2022-10-06T03:38:03.865Z,91.22
2022-10-06T03:39:03.813Z,91.22
2022-10-06T03:40:03.809Z,91.32
2022-10-06T03:41:03.804Z,91.52
2022-10-06T03:42:03.775Z,91.93
2022-10-06T03:43:03.765Z,91.93
2022-10-06T03:44:03.764Z,91.93
2022-10-06T03:45:03.746Z,91.83
2022-10-06T03:46:03.831Z,91.73
2022-10-06T03:47:03.785Z,91.73
2022-10-06T03:48:03.707Z,91.73
2022-10-06T03:49:03.756Z,91.63
2022-10-06T03:50:03.686Z,91.63
2022-10-06T03:51:03.698Z,91.63
2022-10-06T03:52:03.687Z,91.73
2022-10-06T03:53:03.664Z,91.83
2022-10-06T03:54:03.649Z,91.83
2022-10-06T03:55:03.636Z,92.07
2022-10-06T03:56:03.649Z,92.28
2022-10-06T03:57:03.607Z,92.48
2022-10-06T03:58:03.657Z,92.48
2022-10-06T03:59:03.589Z,92.58
2022-10-06T04:00:03.845Z,92.68
2022-10-06T04:01:03.654Z,92.89
2022-10-06T04:02:03.699Z,92.99
2022-10-06T04:03:03.540Z,92.99
2022-10-06T04:04:04.420Z,93.19
2022-10-06T04:05:03.670Z,93.64
2022-10-06T04:06:03.699Z,93.84
2022-10-06T04:07:03.502Z,93.95
2022-10-06T04:08:03.500Z,94.05
2022-10-06T04:09:03.475Z,94.05
2022-10-06T04:10:03.640Z,93.95
2022-10-06T04:11:03.614Z,93.84
2022-10-06T04:12:03.450Z,93.84
2022-10-06T04:13:03.450Z,93.74
2022-10-06T04:14:03.413Z,93.74
2022-10-06T04:15:03.401Z,93.90
2022-10-06T04:16:03.445Z,94.05
2022-10-06T04:17:03.382Z,93.90
2022-10-06T04:18:03.372Z,93.84
2022-10-06T04:19:03.363Z,93.84
2022-10-06T04:20:03.382Z,93.84
2022-10-06T04:21:03.383Z,93.64
2022-10-06T04:22:03.322Z,93.44
2022-10-06T04:23:03.343Z,93.29
2022-10-06T04:24:03.320Z,93.19
2022-10-06T04:25:03.295Z,92.89
2022-10-06T04:26:03.283Z,92.79
2022-10-06T04:27:03.296Z,92.68
2022-10-06T04:28:03.320Z,92.72
2022-10-06T04:29:03.250Z,92.83
2022-10-06T04:30:03.238Z,93.03
2022-10-06T04:31:03.214Z,93.38
2022-10-06T04:32:03.309Z,93.48
2022-10-06T04:33:03.220Z,93.68
2022-10-06T04:34:03.216Z,93.89
2022-10-06T04:35:03.176Z,93.99
2022-10-06T04:36:03.164Z,93.93
2022-10-06T04:37:03.150Z,94.13
2022-10-06T04:38:03.144Z,94.13
2022-10-06T04:39:03.166Z,94.24
2022-10-06T04:40:03.127Z,94.38
2022-10-06T04:41:03.135Z,94.69
2022-10-06T04:42:03.097Z,94.69
2022-10-06T04:43:03.101Z,94.69
2022-10-06T04:44:03.077Z,94.69
2022-10-06T04:45:04.039Z,94.89
2022-10-06T04:46:13.262Z,95.20
2022-10-06T04:47:04.120Z,95.40
2022-10-06T04:48:03.020Z,95.45
2022-10-06T04:49:03.028Z,95.54
2022-10-06T04:50:03.049Z,95.75
2022-10-06T04:51:03.031Z,96.26
2022-10-06T04:52:03.003Z,96.41
2022-10-06T04:53:02.970Z,96.46
2022-10-06T04:54:02.961Z,96.15
2022-10-06T04:55:03.470Z,95.85
2022-10-06T04:56:02.940Z,95.40
2022-10-06T04:57:03.014Z,95.09
2022-10-06T04:58:02.911Z,94.89
2022-10-06T04:59:03.013Z,94.84
2022-10-06T05:00:06.107Z,95.14
2022-10-06T05:01:03.933Z,95.54
2022-10-06T05:02:02.894Z,95.85
2022-10-06T05:03:02.898Z,96.06
2022-10-06T05:04:03.475Z,96.41
2022-10-06T05:05:03.103Z,96.61
2022-10-06T05:06:02.843Z,96.92
2022-10-06T05:07:02.831Z,97.12
2022-10-06T05:08:02.846Z,97.47
2022-10-06T05:09:02.923Z,97.78
2022-10-06T05:10:02.871Z,97.88
2022-10-06T05:11:02.812Z,98.08
2022-10-06T05:12:02.763Z,98.13
2022-10-06T05:13:02.893Z,98.23
2022-10-06T05:14:02.867Z,98.43
2022-10-06T05:15:03.219Z,98.64
2022-10-06T05:16:02.755Z,98.74
2022-10-06T05:17:02.715Z,98.79
2022-10-06T05:18:02.696Z,98.68
2022-10-06T05:19:02.684Z,98.79
2022-10-06T05:20:02.721Z,99.09
2022-10-06T05:21:06.491Z,99.29
2022-10-06T05:22:02.706Z,99.40
2022-10-06T05:23:02.645Z,99.44
2022-10-06T05:24:02.679Z,99.54
2022-10-06T05:25:02.637Z,99.50
2022-10-06T05:26:02.631Z,98.99
2022-10-06T05:27:02.615Z,98.54
2022-10-06T05:28:02.682Z,98.33
2022-10-06T05:29:02.574Z,98.02
2022-10-06T05:30:02.607Z,97.82
2022-10-06T05:31:02.545Z,97.31
2022-10-06T05:32:02.775Z,96.15
2022-10-06T05:33:02.536Z,95.08
2022-10-06T05:34:02.546Z,94.17
2022-10-06T05:35:02.513Z,93.05
2022-10-06T05:36:02.488Z,92.40
2022-10-06T05:37:02.525Z,91.88
2022-10-06T05:38:02.470Z,91.48
2022-10-06T05:39:02.475Z,90.86
2022-10-06T05:40:02.437Z,90.36
2022-10-06T05:41:02.441Z,90.16
2022-10-06T05:42:02.417Z,89.75
2022-10-06T05:43:02.596Z,89.64
2022-10-06T05:44:02.399Z,89.75
2022-10-06T05:45:02.390Z,89.85
2022-10-06T05:46:02.405Z,89.85
2022-10-06T05:47:02.388Z,89.75
2022-10-06T05:48:02.379Z,89.54
2022-10-06T05:49:02.338Z,89.75
2022-10-06T05:50:02.325Z,89.89
2022-10-06T05:51:02.310Z,89.34
2022-10-06T05:52:02.340Z,89.24
2022-10-06T05:53:02.292Z,89.14
2022-10-06T05:54:02.551Z,88.63
2022-10-06T05:55:02.333Z,88.22
2022-10-06T05:56:03.031Z,88.12
2022-10-06T05:57:02.311Z,88.32
2022-10-06T05:58:02.353Z,88.22
2022-10-06T05:59:02.269Z,88.53
2022-10-06T06:00:02.361Z,88.77
2022-10-06T06:01:02.249Z,88.98
2022-10-06T06:02:02.326Z,89.07
2022-10-06T06:03:02.246Z,89.18
2022-10-06T06:04:02.166Z,89.38
2022-10-06T06:05:02.151Z,89.48
2022-10-06T06:06:02.225Z,89.83
2022-10-06T06:07:02.134Z,89.94
2022-10-06T06:08:02.133Z,89.94
2022-10-06T06:09:02.111Z,90.14
2022-10-06T06:10:02.100Z,90.24
2022-10-06T06:11:02.094Z,90.34
2022-10-06T06:12:02.086Z,90.34
2022-10-06T06:13:02.064Z,90.59
2022-10-06T06:14:02.045Z,90.69
2022-10-06T06:15:02.039Z,91.35
2022-10-06T06:16:02.035Z,91.85
2022-10-06T06:17:02.065Z,92.16
2022-10-06T06:18:02.006Z,92.36
2022-10-06T06:19:02.005Z,92.67
2022-10-06T06:20:01.989Z,91.85
2022-10-06T06:21:01.976Z,91.09
2022-10-06T06:22:01.955Z,90.44
2022-10-06T06:23:01.966Z,90.14
2022-10-06T06:24:01.952Z,90.14
2022-10-06T06:25:02.096Z,90.34
2022-10-06T06:26:02.656Z,90.34
2022-10-06T06:27:01.914Z,90.14
2022-10-06T06:28:01.971Z,90.14
2022-10-06T06:29:01.907Z,89.83
2022-10-06T06:30:01.878Z,89.83
2022-10-06T06:31:01.924Z,89.48
2022-10-06T06:32:01.906Z,89.28
2022-10-06T06:33:01.879Z,89.18
2022-10-06T06:34:01.856Z,89.18
2022-10-06T06:35:01.818Z,89.28
2022-10-06T06:36:01.820Z,89.48
2022-10-06T06:37:07.523Z,89.48
2022-10-06T06:38:02.799Z,89.48
2022-10-06T06:39:01.804Z,89.48
2022-10-06T06:40:01.791Z,89.48
2022-10-06T06:41:01.737Z,89.38
2022-10-06T06:42:01.810Z,89.38
2022-10-06T06:43:01.718Z,89.48
2022-10-06T06:44:01.699Z,89.59
2022-10-06T06:45:01.702Z,89.69
2022-10-06T06:46:01.731Z,89.48
2022-10-06T06:47:01.679Z,89.59
2022-10-06T06:48:01.661Z,89.69
2022-10-06T06:49:01.710Z,89.28
2022-10-06T06:50:01.651Z,89.34
2022-10-06T06:51:01.641Z,88.73
2022-10-06T06:52:01.640Z,88.63
2022-10-06T06:53:01.610Z,88.53
2022-10-06T06:54:01.593Z,88.53
2022-10-06T06:55:01.594Z,88.32
2022-10-06T06:56:01.562Z,88.42
2022-10-06T06:57:01.604Z,88.53
2022-10-06T06:58:01.573Z,88.08
2022-10-06T06:59:01.543Z,88.08
2022-10-06T07:00:01.548Z,88.18
2022-10-06T07:01:01.534Z,88.08
2022-10-06T07:02:01.550Z,88.28
2022-10-06T07:03:02.217Z,88.48
2022-10-06T07:04:01.512Z,88.18
2022-10-06T07:05:01.503Z,88.39
2022-10-06T07:06:01.538Z,88.18
2022-10-06T07:07:01.505Z,88.28
2022-10-06T07:08:01.484Z,88.59
2022-10-06T07:09:01.463Z,87.37
2022-10-06T07:10:01.714Z,86.35
2022-10-06T07:11:01.394Z,85.60
2022-10-06T07:12:01.421Z,85.49
2022-10-06T07:13:01.382Z,84.07
2022-10-06T07:14:01.565Z,83.87
2022-10-06T07:15:01.469Z,83.01
2022-10-06T07:16:01.537Z,82.71
2022-10-06T07:17:01.475Z,82.51
2022-10-06T07:18:01.316Z,82.20
2022-10-06T07:19:01.327Z,82.40
2022-10-06T07:20:01.317Z,82.61
2022-10-06T07:21:01.318Z,82.51
2022-10-06T07:22:01.276Z,82.37
2022-10-06T07:23:01.265Z,82.26
2022-10-06T07:24:01.291Z,82.57
2022-10-06T07:25:01.275Z,82.67
2022-10-06T07:26:01.257Z,82.17
2022-10-06T07:27:01.277Z,82.37
2022-10-06T07:28:01.266Z,82.67
2022-10-06T07:29:01.226Z,82.87
2022-10-06T07:30:01.198Z,82.98
2022-10-06T07:31:01.280Z,82.78
2022-10-06T07:32:01.230Z,82.17
2022-10-06T07:33:01.227Z,81.45
2022-10-06T07:34:01.158Z,81.56
2022-10-06T07:35:01.170Z,81.45
2022-10-06T07:36:01.139Z,81.21
2022-10-06T07:37:04.142Z,81.11
2022-10-06T07:38:02.146Z,80.19
2022-10-06T07:39:01.111Z,79.99
2022-10-06T07:40:01.089Z,79.49
2022-10-06T07:41:18.284Z,79.90
2022-10-06T07:42:02.090Z,79.38
2022-10-06T07:43:01.074Z,79.28
2022-10-06T07:44:05.821Z,79.08
2022-10-06T07:45:02.061Z,79.59
2022-10-06T07:46:01.089Z,79.99
2022-10-06T07:47:01.010Z,80.10
2022-10-06T07:48:01.012Z,80.06
2022-10-06T07:49:00.986Z,79.96
2022-10-06T07:50:01.021Z,80.16
2022-10-06T07:51:00.986Z,80.26
2022-10-06T07:52:00.992Z,79.51
2022-10-06T07:53:00.942Z,79.85
2022-10-06T07:54:00.951Z,79.04
2022-10-06T07:55:00.955Z,79.75
2022-10-06T07:56:00.935Z,79.85
2022-10-06T07:57:00.903Z,79.55
2022-10-06T07:58:00.922Z,77.56
2022-10-06T07:59:00.894Z,77.66
2022-10-06T08:00:03.265Z,77.72
2022-10-06T08:01:00.865Z,77.93
2022-10-06T08:02:00.905Z,78.13
2022-10-06T08:03:00.875Z,78.53
2022-10-06T08:04:00.805Z,78.13
2022-10-06T08:05:00.805Z,77.72
2022-10-06T08:06:00.830Z,77.48
2022-10-06T08:07:00.795Z,78.91
2022-10-06T08:08:00.796Z,76.98
2022-10-06T08:09:00.774Z,76.31
2022-10-06T08:10:00.758Z,76.61
2022-10-06T08:11:01.960Z,76.87
2022-10-06T08:12:00.750Z,76.61
2022-10-06T08:13:00.717Z,77.12
2022-10-06T08:14:00.696Z,77.48
2022-10-06T08:15:04.524Z,76.67
2022-10-06T08:16:01.777Z,76.06
2022-10-06T08:17:00.687Z,76.37
2022-10-06T08:18:00.680Z,76.57
2022-10-06T08:19:00.658Z,75.56
2022-10-06T08:20:00.628Z,75.86
2022-10-06T08:21:00.628Z,75.32
2022-10-06T08:22:04.639Z,74.81
2022-10-06T08:23:00.628Z,75.32
2022-10-06T08:24:00.590Z,76.43
2022-10-06T08:25:06.227Z,74.71
2022-10-06T08:26:01.594Z,75.32
2022-10-06T08:27:00.571Z,75.32
2022-10-06T08:28:00.606Z,75.12
2022-10-06T08:29:00.525Z,74.30
2022-10-06T08:30:00.520Z,74.41
2022-10-06T08:31:00.534Z,74.71
2022-10-06T08:32:00.536Z,74.61
2022-10-06T08:33:00.491Z,74.91
2022-10-06T08:34:00.537Z,74.81
2022-10-06T08:35:00.499Z,74.98
2022-10-06T08:36:00.441Z,74.37
2022-10-06T08:37:19.302Z,74.88
2022-10-06T08:38:01.574Z,74.68
2022-10-06T08:39:00.434Z,74.07
2022-10-06T08:40:00.472Z,73.46
2022-10-06T08:41:00.393Z,73.97
2022-10-06T08:42:00.396Z,73.16
2022-10-06T08:43:00.390Z,73.86
2022-10-06T08:44:00.359Z,73.76
2022-10-06T08:45:00.338Z,72.65
2022-10-06T08:46:00.357Z,72.65
2022-10-06T08:47:00.323Z,72.45
2022-10-06T08:48:00.303Z,72.85
2022-10-06T08:49:00.427Z,72.65
2022-10-06T08:50:00.457Z,72.75
2022-10-06T08:51:00.306Z,72.96
2022-10-06T08:52:00.263Z,73.32
2022-10-06T08:53:00.247Z,72.31
2022-10-06T08:54:00.255Z,72.81
2022-10-06T08:55:00.244Z,71.88
2022-10-06T08:56:00.314Z,71.50
2022-10-06T08:57:00.312Z,71.40
2022-10-06T08:58:00.273Z,71.67
2022-10-06T08:59:00.213Z,72.01
2022-10-06T09:00:01.127Z,72.11
2022-10-06T09:01:00.186Z,70.39
2022-10-06T09:02:00.196Z,69.74
2022-10-06T09:03:00.160Z,69.44
2022-10-06T09:04:00.117Z,69.44
2022-10-06T09:05:00.114Z,69.14
2022-10-06T09:06:00.100Z,69.04
2022-10-06T09:07:00.093Z,69.34
2022-10-06T09:08:00.121Z,69.01
2022-10-06T09:09:00.061Z,69.18
2022-10-06T09:10:00.051Z,67.96
2022-10-06T09:11:00.084Z,67.89
2022-10-06T09:12:00.025Z,68.87
2022-10-06T09:13:00.009Z,68.26
2022-10-06T09:14:00.051Z,68.50
2022-10-06T09:15:00.009Z,68.90
2022-10-06T09:16:00.078Z,68.50
2022-10-06T09:16:59.965Z,68.70
2022-10-06T09:18:00.000Z,68.60
2022-10-06T09:19:08.627Z,69.27
2022-10-06T09:20:00.979Z,68.16
2022-10-06T09:20:59.934Z,68.47
2022-10-06T09:22:00.087Z,68.87
2022-10-06T09:22:59.903Z,69.38
2022-10-06T09:23:59.898Z,69.27
2022-10-06T09:24:59.873Z,67.55
2022-10-06T09:25:59.883Z,68.33
2022-10-06T09:26:59.866Z,67.63
2022-10-06T09:27:59.912Z,66.44
2022-10-06T09:28:59.846Z,67.25
2022-10-06T09:29:59.814Z,67.55
2022-10-06T09:31:01.080Z,66.52
2022-10-06T09:31:59.813Z,66.82
2022-10-06T09:33:00.961Z,66.21
2022-10-06T09:33:59.856Z,66.82
2022-10-06T09:34:59.850Z,66.41
2022-10-06T09:35:59.854Z,65.70
2022-10-06T09:37:01.531Z,65.81
2022-10-06T09:38:02.245Z,64.83
2022-10-06T09:38:59.756Z,65.73
2022-10-06T09:39:59.806Z,65.20
2022-10-06T09:40:59.864Z,64.79
2022-10-06T09:41:59.727Z,64.19
2022-10-06T09:42:59.699Z,64.49
2022-10-06T09:43:59.678Z,64.29
2022-10-06T09:44:59.665Z,64.73
2022-10-06T09:45:59.709Z,64.96
2022-10-06T09:46:59.663Z,65.36
2022-10-06T09:47:59.657Z,65.16
2022-10-06T09:48:59.610Z,66.04
2022-10-06T09:49:59.620Z,65.73
2022-10-06T09:50:59.616Z,66.52
2022-10-06T09:51:59.616Z,65.70
2022-10-06T09:52:59.581Z,66.41
2022-10-06T09:53:59.577Z,65.10
2022-10-06T09:54:59.560Z,65.50
2022-10-06T09:55:59.520Z,65.30
2022-10-06T09:56:59.528Z,65.84
2022-10-06T09:57:59.509Z,66.61
2022-10-06T09:58:59.499Z,67.02
2022-10-06T09:59:59.798Z,66.82
2022-10-06T10:00:59.544Z,67.22
2022-10-06T10:01:59.474Z,67.25
2022-10-06T10:02:59.546Z,67.25
2022-10-06T10:04:19.499Z,66.92
2022-10-06T10:05:00.467Z,66.82
2022-10-06T10:05:59.452Z,66.92
2022-10-06T10:06:59.416Z,66.11
2022-10-06T10:07:59.391Z,65.40
2022-10-06T10:08:59.405Z,65.70
2022-10-06T10:09:59.547Z,66.82
2022-10-06T10:10:59.399Z,65.17
2022-10-06T10:11:59.345Z,65.20
2022-10-06T10:12:59.373Z,64.97
2022-10-06T10:13:59.312Z,63.55
2022-10-06T10:14:59.305Z,63.76
2022-10-06T10:15:59.378Z,63.28
2022-10-06T10:16:59.284Z,63.48
2022-10-06T10:17:59.264Z,63.48
2022-10-06T10:18:59.273Z,63.89
2022-10-06T10:19:59.564Z,63.78
2022-10-06T10:20:59.275Z,63.38
2022-10-06T10:21:59.304Z,63.89
2022-10-06T10:22:59.965Z,63.68
2022-10-06T10:24:07.765Z,64.79
2022-10-06T10:24:59.182Z,64.79
2022-10-06T10:25:59.172Z,64.76
2022-10-06T10:26:59.286Z,64.87
2022-10-06T10:27:59.233Z,65.27
2022-10-06T10:28:59.155Z,65.14
2022-10-06T10:29:59.400Z,64.26
2022-10-06T10:30:59.157Z,64.59
2022-10-06T10:31:59.174Z,65.30
2022-10-06T10:32:59.135Z,65.81
2022-10-06T10:34:12.025Z,65.98
2022-10-06T10:35:00.344Z,65.27
2022-10-06T10:35:59.075Z,64.56
2022-10-06T10:36:59.075Z,65.14
2022-10-06T10:37:59.038Z,65.54
2022-10-06T10:38:59.077Z,66.72
2022-10-06T10:39:59.025Z,64.47
2022-10-06T10:40:59.016Z,62.21
2022-10-06T10:41:59.016Z,62.71
2022-10-06T10:42:58.985Z,62.24
2022-10-06T10:44:03.350Z,62.24
2022-10-06T10:45:00.177Z,62.21
2022-10-06T10:45:58.956Z,61.51
2022-10-06T10:46:59.025Z,58.98
2022-10-06T10:47:58.929Z,59.18
2022-10-06T10:48:58.930Z,59.76
2022-10-06T10:49:58.930Z,59.56
2022-10-06T10:50:58.929Z,59.86
2022-10-06T10:51:58.888Z,59.45
2022-10-06T10:52:58.881Z,59.69
2022-10-06T10:53:58.879Z,59.89
2022-10-06T10:54:59.406Z,58.98
2022-10-06T10:55:58.839Z,60.49
2022-10-06T10:56:58.851Z,60.29
2022-10-06T10:57:58.819Z,59.89
2022-10-06T10:58:58.823Z,61.00
2022-10-06T10:59:58.792Z,60.39
2022-10-06T11:00:58.821Z,60.69
2022-10-06T11:01:58.793Z,61.17
2022-10-06T11:02:58.782Z,61.98
2022-10-06T11:03:58.762Z,62.08
2022-10-06T11:04:59.181Z,61.44
2022-10-06T11:05:58.742Z,61.55
2022-10-06T11:06:58.714Z,61.14
2022-10-06T11:07:58.910Z,61.47
2022-10-06T11:08:58.693Z,62.08
2022-10-06T11:09:58.683Z,63.06
2022-10-06T11:10:58.682Z,61.75
2022-10-06T11:11:58.652Z,62.48
2022-10-06T11:12:58.656Z,61.47
2022-10-06T11:13:58.653Z,61.47
2022-10-06T11:14:58.938Z,61.51
2022-10-06T11:15:58.688Z,61.27
2022-10-06T11:16:58.608Z,59.69
2022-10-06T11:17:58.586Z,59.18
2022-10-06T11:18:58.574Z,59.89
2022-10-06T11:19:58.627Z,59.15
2022-10-06T11:20:58.554Z,59.76
2022-10-06T11:21:58.563Z,59.56
2022-10-06T11:22:58.528Z,58.34
2022-10-06T11:23:58.563Z,60.26
2022-10-06T11:24:58.851Z,59.63
2022-10-06T11:25:58.549Z,60.51
2022-10-06T11:26:58.498Z,59.17
2022-10-06T11:27:58.567Z,58.47
2022-10-06T11:28:58.500Z,58.49
2022-10-06T11:29:58.745Z,57.18
2022-10-06T11:30:58.439Z,57.31
2022-10-06T11:31:58.521Z,57.41
2022-10-06T11:32:58.398Z,57.21
2022-10-06T11:33:58.404Z,57.21
2022-10-06T11:34:58.508Z,57.21
2022-10-06T11:35:58.399Z,58.42
2022-10-06T11:36:58.373Z,58.32
2022-10-06T11:37:58.390Z,57.89
2022-10-06T11:38:58.377Z,56.60
2022-10-06T11:39:58.572Z,58.19
2022-10-06T11:40:58.328Z,57.78
2022-10-06T11:41:58.311Z,57.15
2022-10-06T11:42:58.299Z,57.48
2022-10-06T11:43:58.314Z,56.77
2022-10-06T11:44:58.486Z,56.27
2022-10-06T11:45:58.331Z,56.17
2022-10-06T11:46:58.261Z,58.09
2022-10-06T11:47:58.242Z,55.97
2022-10-06T11:48:58.231Z,55.77
2022-10-06T11:49:58.273Z,55.26
2022-10-06T11:50:58.203Z,59.27
2022-10-06T11:52:00.107Z,57.25
2022-10-06T11:52:58.195Z,55.34
2022-10-06T11:53:58.184Z,55.54
2022-10-06T11:54:58.424Z,55.74
2022-10-06T11:55:58.143Z,56.15
2022-10-06T11:56:58.143Z,57.15
2022-10-06T11:57:58.126Z,55.04
2022-10-06T11:58:58.137Z,55.74
2022-10-06T11:59:58.129Z,55.84
2022-10-06T12:00:58.115Z,55.74
2022-10-06T12:01:58.396Z,56.04
2022-10-06T12:02:58.185Z,55.54
2022-10-06T12:03:58.150Z,54.94
2022-10-06T12:04:58.181Z,54.56
2022-10-06T12:05:58.093Z,54.05
2022-10-06T12:06:58.027Z,54.86
2022-10-06T12:07:58.016Z,55.46
2022-10-06T12:08:57.997Z,57.18
2022-10-06T12:09:57.987Z,56.98
2022-10-06T12:10:57.966Z,57.28
2022-10-06T12:11:58.001Z,56.15
2022-10-06T12:13:06.635Z,55.36
2022-10-06T12:15:06.543Z,56.37
2022-10-06T12:17:12.831Z,56.17
2022-10-06T12:17:58.888Z,57.68
2022-10-06T12:18:57.891Z,57.38
2022-10-06T12:19:57.916Z,55.54
2022-10-06T12:20:57.860Z,55.36
2022-10-06T12:21:57.839Z,55.57
2022-10-06T12:22:57.879Z,56.48
2022-10-06T12:23:57.826Z,55.36
2022-10-06T12:24:58.131Z,56.35
2022-10-06T12:25:57.831Z,55.94
2022-10-06T12:26:57.804Z,55.94
2022-10-06T12:27:57.875Z,54.03
2022-10-06T12:28:57.761Z,54.63
2022-10-06T12:29:58.003Z,56.55
2022-10-06T12:30:57.792Z,53.63
2022-10-06T12:31:57.749Z,53.42
2022-10-06T12:32:57.735Z,54.13
2022-10-06T12:33:57.796Z,56.45
2022-10-06T12:34:58.121Z,55.01
2022-10-06T12:35:57.704Z,55.01
2022-10-06T12:36:57.833Z,55.41
2022-10-06T12:37:57.673Z,55.71
2022-10-06T12:38:57.662Z,56.22
2022-10-06T12:39:57.656Z,55.01
2022-10-06T12:40:57.628Z,53.40
2022-10-06T12:41:57.699Z,54.83
2022-10-06T12:42:57.609Z,53.52
2022-10-06T12:43:57.599Z,53.92
2022-10-06T12:44:57.873Z,54.53
2022-10-06T12:45:57.616Z,53.05
2022-10-06T12:46:57.566Z,53.75
2022-10-06T12:47:57.545Z,54.96
2022-10-06T12:48:57.585Z,52.82
2022-10-06T12:49:57.595Z,52.11
2022-10-06T12:50:57.539Z,51.00
2022-10-06T12:51:59.704Z,52.11
2022-10-06T12:52:57.511Z,53.00
2022-10-06T12:53:57.494Z,49.87